Total de visites : 267577 | les spotteurs aujourd'hui : 83 | les spotteurs connect├ęs actuellement : 1
METAR EN COURS : Saint-Denis / Gillot, Reunion (FMEE) 20-53S 055-31E 25M- - - - May 22, 2019 - 10:00 AM EDT / 2019.05.22 1400 UTC- - - - Wind: from the SE (140 degrees) at 10 MPH (9 KT):0- - - - Visibility: greater than 7 mile(s):0- - - - Sky conditions: overcast- - - - Temperature: 77 F (25 C)- - - - Dew Point: 57 F (14 C)- - - - Relative Humidity: 50%- - - - Pressure (altimeter): 30.03 in. Hg (1017 hPa)- - - - ob: FMEE 221400Z AUTO 14009KT 9999 BKN058 OVC072 25/14 Q1017 NOSIG- - - - cycle: 14- - - -